sensor_id;sensor_type;location;lat;lon;timestamp;P1;durP1;ratioP1;P2;durP2;ratioP2
32130;SDS011;18639;50.716;7.086;2023-02-28T00:01:20;2.05;;;0.82;;
32130;SDS011;18639;50.716;7.086;2023-02-28T00:03:46;0.50;;;0.50;;
32130;SDS011;18639;50.716;7.086;2023-02-28T00:06:11;0.60;;;0.60;;
32130;SDS011;18639;50.716;7.086;2023-02-28T00:08:37;0.85;;;0.70;;
32130;SDS011;18639;50.716;7.086;2023-02-28T00:11:04;0.50;;;0.50;;
32130;SDS011;18639;50.716;7.086;2023-02-28T00:13:32;2.05;;;0.65;;
32130;SDS011;18639;50.716;7.086;2023-02-28T00:16:03;1.52;;;0.40;;
32130;SDS011;18639;50.716;7.086;2023-02-28T00:18:30;0.55;;;0.55;;
32130;SDS011;18639;50.716;7.086;2023-02-28T00:20:57;4.13;;;0.70;;
32130;SDS011;18639;50.716;7.086;2023-02-28T00:23:25;0.38;;;0.38;;
32130;SDS011;18639;50.716;7.086;2023-02-28T00:25:52;0.52;;;0.50;;
32130;SDS011;18639;50.716;7.086;2023-02-28T00:28:17;1.20;;;0.50;;
32130;SDS011;18639;50.716;7.086;2023-02-28T00:30:43;0.98;;;0.52;;
32130;SDS011;18639;50.716;7.086;2023-02-28T00:33:08;1.20;;;1.10;;
32130;SDS011;18639;50.716;7.086;2023-02-28T00:35:34;0.55;;;0.40;;
32130;SDS011;18639;50.716;7.086;2023-02-28T00:37:59;0.70;;;0.60;;
32130;SDS011;18639;50.716;7.086;2023-02-28T00:40:24;1.33;;;1.23;;
32130;SDS011;18639;50.716;7.086;2023-02-28T00:42:50;1.30;;;0.80;;
32130;SDS011;18639;50.716;7.086;2023-02-28T00:45:16;0.73;;;0.50;;
32130;SDS011;18639;50.716;7.086;2023-02-28T00:47:41;0.73;;;0.63;;
32130;SDS011;18639;50.716;7.086;2023-02-28T00:50:07;0.50;;;0.50;;
32130;SDS011;18639;50.716;7.086;2023-02-28T00:52:33;2.65;;;0.90;;
32130;SDS011;18639;50.716;7.086;2023-02-28T00:54:58;0.70;;;0.60;;
32130;SDS011;18639;50.716;7.086;2023-02-28T00:57:24;1.25;;;0.70;;
32130;SDS011;18639;50.716;7.086;2023-02-28T00:59:49;0.52;;;0.52;;
32130;SDS011;18639;50.716;7.086;2023-02-28T01:02:14;0.60;;;0.60;;
32130;SDS011;18639;50.716;7.086;2023-02-28T01:04:40;0.85;;;0.50;;
32130;SDS011;18639;50.716;7.086;2023-02-28T01:07:05;0.57;;;0.55;;
32130;SDS011;18639;50.716;7.086;2023-02-28T01:09:31;2.40;;;0.50;;
32130;SDS011;18639;50.716;7.086;2023-02-28T01:11:56;0.50;;;0.45;;
32130;SDS011;18639;50.716;7.086;2023-02-28T01:14:21;0.98;;;0.77;;
32130;SDS011;18639;50.716;7.086;2023-02-28T01:16:47;0.50;;;0.50;;
32130;SDS011;18639;50.716;7.086;2023-02-28T01:19:12;0.45;;;0.45;;
32130;SDS011;18639;50.716;7.086;2023-02-28T01:21:38;0.88;;;0.60;;
32130;SDS011;18639;50.716;7.086;2023-02-28T01:24:04;0.95;;;0.60;;
32130;SDS011;18639;50.716;7.086;2023-02-28T01:26:30;0.40;;;0.40;;
32130;SDS011;18639;50.716;7.086;2023-02-28T01:28:55;0.70;;;0.60;;
32130;SDS011;18639;50.716;7.086;2023-02-28T01:31:21;0.50;;;0.50;;
32130;SDS011;18639;50.716;7.086;2023-02-28T01:33:47;0.55;;;0.52;;
32130;SDS011;18639;50.716;7.086;2023-02-28T01:36:14;2.42;;;0.68;;
32130;SDS011;18639;50.716;7.086;2023-02-28T01:38:41;0.60;;;0.50;;
32130;SDS011;18639;50.716;7.086;2023-02-28T01:41:07;0.50;;;0.50;;
32130;SDS011;18639;50.716;7.086;2023-02-28T01:46:09;0.98;;;0.65;;
32130;SDS011;18639;50.716;7.086;2023-02-28T01:48:36;0.55;;;0.52;;
32130;SDS011;18639;50.716;7.086;2023-02-28T01:51:11;2.17;;;0.60;;
32130;SDS011;18639;50.716;7.086;2023-02-28T01:53:51;0.77;;;0.60;;
32130;SDS011;18639;50.716;7.086;2023-02-28T01:56:23;0.40;;;0.40;;
32130;SDS011;18639;50.716;7.086;2023-02-28T01:58:51;1.55;;;0.73;;
32130;SDS011;18639;50.716;7.086;2023-02-28T02:01:18;0.60;;;0.47;;
32130;SDS011;18639;50.716;7.086;2023-02-28T02:03:56;1.20;;;0.45;;
32130;SDS011;18639;50.716;7.086;2023-02-28T02:06:25;0.85;;;0.60;;
32130;SDS011;18639;50.716;7.086;2023-02-28T02:09:05;0.77;;;0.70;;
32130;SDS011;18639;50.716;7.086;2023-02-28T02:11:31;0.70;;;0.70;;
32130;SDS011;18639;50.716;7.086;2023-02-28T02:16:40;0.82;;;0.65;;
32130;SDS011;18639;50.716;7.086;2023-02-28T02:35:43;0.40;;;0.40;;
32130;SDS011;18639;50.716;7.086;2023-02-28T02:43:40;0.65;;;0.55;;
32130;SDS011;18639;50.716;7.086;2023-02-28T02:46:10;0.50;;;0.50;;
32130;SDS011;18639;50.716;7.086;2023-02-28T02:48:40;0.65;;;0.40;;
32130;SDS011;18639;50.716;7.086;2023-02-28T02:51:10;0.50;;;0.40;;
32130;SDS011;18639;50.716;7.086;2023-02-28T02:56:44;0.40;;;0.40;;
32130;SDS011;18639;50.716;7.086;2023-02-28T02:59:12;0.70;;;0.50;;
32130;SDS011;18639;50.716;7.086;2023-02-28T03:01:45;0.38;;;0.38;;
32130;SDS011;18639;50.716;7.086;2023-02-28T03:04:16;0.98;;;0.40;;
32130;SDS011;18639;50.716;7.086;2023-02-28T03:06:43;0.30;;;0.30;;
32130;SDS011;18639;50.716;7.086;2023-02-28T03:09:08;0.30;;;0.30;;
32130;SDS011;18639;50.716;7.086;2023-02-28T03:11:35;0.50;;;0.50;;
32130;SDS011;18639;50.716;7.086;2023-02-28T03:14:08;0.40;;;0.40;;
32130;SDS011;18639;50.716;7.086;2023-02-28T03:16:55;0.35;;;0.35;;
32130;SDS011;18639;50.716;7.086;2023-02-28T03:19:33;0.45;;;0.45;;
32130;SDS011;18639;50.716;7.086;2023-02-28T03:35:08;1.88;;;0.50;;
32130;SDS011;18639;50.716;7.086;2023-02-28T03:37:39;0.88;;;0.50;;
32130;SDS011;18639;50.716;7.086;2023-02-28T03:40:09;0.60;;;0.60;;
32130;SDS011;18639;50.716;7.086;2023-02-28T03:42:38;0.73;;;0.57;;
32130;SDS011;18639;50.716;7.086;2023-02-28T03:45:11;0.90;;;0.40;;
32130;SDS011;18639;50.716;7.086;2023-02-28T03:47:44;0.40;;;0.40;;
32130;SDS011;18639;50.716;7.086;2023-02-28T03:50:21;0.57;;;0.47;;
32130;SDS011;18639;50.716;7.086;2023-02-28T03:52:51;0.75;;;0.40;;
32130;SDS011;18639;50.716;7.086;2023-02-28T03:55:26;2.08;;;0.90;;
32130;SDS011;18639;50.716;7.086;2023-02-28T04:01:06;0.63;;;0.50;;
32130;SDS011;18639;50.716;7.086;2023-02-28T04:03:35;0.60;;;0.60;;
32130;SDS011;18639;50.716;7.086;2023-02-28T04:06:01;0.68;;;0.50;;
32130;SDS011;18639;50.716;7.086;2023-02-28T04:08:27;0.50;;;0.50;;
32130;SDS011;18639;50.716;7.086;2023-02-28T04:10:55;1.10;;;0.75;;
32130;SDS011;18639;50.716;7.086;2023-02-28T04:13:40;0.52;;;0.50;;
32130;SDS011;18639;50.716;7.086;2023-02-28T04:16:06;0.60;;;0.60;;
32130;SDS011;18639;50.716;7.086;2023-02-28T04:18:36;1.00;;;0.40;;
32130;SDS011;18639;50.716;7.086;2023-02-28T04:21:05;0.40;;;0.35;;
32130;SDS011;18639;50.716;7.086;2023-02-28T04:23:31;0.40;;;0.35;;
32130;SDS011;18639;50.716;7.086;2023-02-28T04:25:57;0.47;;;0.40;;
32130;SDS011;18639;50.716;7.086;2023-02-28T04:28:22;0.70;;;0.70;;
32130;SDS011;18639;50.716;7.086;2023-02-28T04:30:53;0.32;;;0.32;;
32130;SDS011;18639;50.716;7.086;2023-02-28T04:33:22;0.63;;;0.52;;
32130;SDS011;18639;50.716;7.086;2023-02-28T04:35:47;0.95;;;0.43;;
32130;SDS011;18639;50.716;7.086;2023-02-28T04:38:13;0.50;;;0.50;;
32130;SDS011;18639;50.716;7.086;2023-02-28T04:40:38;0.47;;;0.47;;
32130;SDS011;18639;50.716;7.086;2023-02-28T04:43:03;2.03;;;0.43;;
32130;SDS011;18639;50.716;7.086;2023-02-28T04:45:29;0.73;;;0.73;;
32130;SDS011;18639;50.716;7.086;2023-02-28T04:47:57;0.43;;;0.43;;
32130;SDS011;18639;50.716;7.086;2023-02-28T04:50:22;0.95;;;0.60;;
32130;SDS011;18639;50.716;7.086;2023-02-28T04:52:47;0.60;;;0.60;;
32130;SDS011;18639;50.716;7.086;2023-02-28T04:55:13;0.30;;;0.30;;
32130;SDS011;18639;50.716;7.086;2023-02-28T04:57:38;0.57;;;0.55;;
32130;SDS011;18639;50.716;7.086;2023-02-28T05:00:04;0.50;;;0.40;;
32130;SDS011;18639;50.716;7.086;2023-02-28T05:02:33;0.40;;;0.40;;
32130;SDS011;18639;50.716;7.086;2023-02-28T05:04:59;0.43;;;0.43;;
32130;SDS011;18639;50.716;7.086;2023-02-28T05:07:25;0.60;;;0.60;;
32130;SDS011;18639;50.716;7.086;2023-02-28T05:09:50;0.38;;;0.38;;
32130;SDS011;18639;50.716;7.086;2023-02-28T05:12:15;0.50;;;0.50;;
32130;SDS011;18639;50.716;7.086;2023-02-28T05:14:41;0.30;;;0.30;;
32130;SDS011;18639;50.716;7.086;2023-02-28T05:17:06;0.45;;;0.45;;
32130;SDS011;18639;50.716;7.086;2023-02-28T05:19:31;1.83;;;0.52;;
32130;SDS011;18639;50.716;7.086;2023-02-28T05:21:56;0.50;;;0.47;;
32130;SDS011;18639;50.716;7.086;2023-02-28T05:24:22;2.35;;;0.63;;
32130;SDS011;18639;50.716;7.086;2023-02-28T05:26:48;1.17;;;0.65;;
32130;SDS011;18639;50.716;7.086;2023-02-28T05:29:16;1.83;;;0.93;;
32130;SDS011;18639;50.716;7.086;2023-02-28T05:31:41;6.90;;;1.50;;
32130;SDS011;18639;50.716;7.086;2023-02-28T05:34:06;1.00;;;0.75;;
32130;SDS011;18639;50.716;7.086;2023-02-28T05:36:32;0.65;;;0.65;;
32130;SDS011;18639;50.716;7.086;2023-02-28T05:38:57;0.50;;;0.50;;
32130;SDS011;18639;50.716;7.086;2023-02-28T05:41:23;0.55;;;0.55;;
32130;SDS011;18639;50.716;7.086;2023-02-28T05:43:48;2.58;;;0.73;;
32130;SDS011;18639;50.716;7.086;2023-02-28T05:46:14;0.50;;;0.50;;
32130;SDS011;18639;50.716;7.086;2023-02-28T05:48:41;0.73;;;0.40;;
32130;SDS011;18639;50.716;7.086;2023-02-28T05:51:07;0.40;;;0.40;;
32130;SDS011;18639;50.716;7.086;2023-02-28T05:53:33;1.17;;;0.82;;
32130;SDS011;18639;50.716;7.086;2023-02-28T05:55:59;0.70;;;0.47;;
32130;SDS011;18639;50.716;7.086;2023-02-28T05:58:25;0.45;;;0.45;;
32130;SDS011;18639;50.716;7.086;2023-02-28T06:00:54;0.43;;;0.43;;
32130;SDS011;18639;50.716;7.086;2023-02-28T06:03:19;0.55;;;0.55;;
32130;SDS011;18639;50.716;7.086;2023-02-28T06:05:44;1.02;;;0.77;;
32130;SDS011;18639;50.716;7.086;2023-02-28T06:08:09;0.55;;;0.55;;
32130;SDS011;18639;50.716;7.086;2023-02-28T06:10:35;0.50;;;0.50;;
32130;SDS011;18639;50.716;7.086;2023-02-28T06:13:01;2.17;;;0.60;;
32130;SDS011;18639;50.716;7.086;2023-02-28T06:15:27;0.65;;;0.60;;
32130;SDS011;18639;50.716;7.086;2023-02-28T06:17:53;0.60;;;0.60;;
32130;SDS011;18639;50.716;7.086;2023-02-28T06:20:19;0.38;;;0.38;;
32130;SDS011;18639;50.716;7.086;2023-02-28T06:22:44;1.15;;;0.65;;
32130;SDS011;18639;50.716;7.086;2023-02-28T06:25:09;0.65;;;0.50;;
32130;SDS011;18639;50.716;7.086;2023-02-28T06:27:35;1.75;;;0.80;;
32130;SDS011;18639;50.716;7.086;2023-02-28T06:30:00;1.08;;;0.52;;
32130;SDS011;18639;50.716;7.086;2023-02-28T06:32:26;0.60;;;0.60;;
32130;SDS011;18639;50.716;7.086;2023-02-28T06:34:51;0.40;;;0.30;;
32130;SDS011;18639;50.716;7.086;2023-02-28T06:37:17;0.40;;;0.38;;
32130;SDS011;18639;50.716;7.086;2023-02-28T06:39:43;0.40;;;0.40;;
32130;SDS011;18639;50.716;7.086;2023-02-28T06:42:08;0.75;;;0.50;;
32130;SDS011;18639;50.716;7.086;2023-02-28T06:44:34;2.00;;;0.52;;
32130;SDS011;18639;50.716;7.086;2023-02-28T06:47:03;0.40;;;0.40;;
32130;SDS011;18639;50.716;7.086;2023-02-28T06:49:33;1.10;;;0.43;;
32130;SDS011;18639;50.716;7.086;2023-02-28T06:51:59;1.42;;;0.65;;
32130;SDS011;18639;50.716;7.086;2023-02-28T06:54:24;0.73;;;0.52;;
32130;SDS011;18639;50.716;7.086;2023-02-28T06:56:50;0.35;;;0.35;;
32130;SDS011;18639;50.716;7.086;2023-02-28T06:59:16;0.47;;;0.47;;
32130;SDS011;18639;50.716;7.086;2023-02-28T07:01:41;3.15;;;0.63;;
32130;SDS011;18639;50.716;7.086;2023-02-28T07:04:07;0.68;;;0.57;;
32130;SDS011;18639;50.716;7.086;2023-02-28T07:06:32;0.68;;;0.50;;
32130;SDS011;18639;50.716;7.086;2023-02-28T07:08:58;2.42;;;0.95;;
32130;SDS011;18639;50.716;7.086;2023-02-28T07:11:24;0.85;;;0.55;;
32130;SDS011;18639;50.716;7.086;2023-02-28T07:13:54;1.00;;;0.77;;
32130;SDS011;18639;50.716;7.086;2023-02-28T07:16:20;0.45;;;0.43;;
32130;SDS011;18639;50.716;7.086;2023-02-28T07:18:45;1.92;;;0.68;;
32130;SDS011;18639;50.716;7.086;2023-02-28T07:21:11;0.73;;;0.47;;
32130;SDS011;18639;50.716;7.086;2023-02-28T07:23:37;0.40;;;0.40;;
32130;SDS011;18639;50.716;7.086;2023-02-28T07:26:03;1.00;;;0.63;;
32130;SDS011;18639;50.716;7.086;2023-02-28T07:28:29;0.77;;;0.57;;
32130;SDS011;18639;50.716;7.086;2023-02-28T07:30:54;0.75;;;0.65;;
32130;SDS011;18639;50.716;7.086;2023-02-28T07:33:19;0.75;;;0.70;;
32130;SDS011;18639;50.716;7.086;2023-02-28T07:35:45;1.15;;;0.73;;
32130;SDS011;18639;50.716;7.086;2023-02-28T07:38:10;0.60;;;0.60;;
32130;SDS011;18639;50.716;7.086;2023-02-28T07:40:36;0.68;;;0.57;;
32130;SDS011;18639;50.716;7.086;2023-02-28T07:43:02;1.75;;;0.90;;
32130;SDS011;18639;50.716;7.086;2023-02-28T07:45:29;0.73;;;0.73;;
32130;SDS011;18639;50.716;7.086;2023-02-28T07:47:57;2.15;;;0.70;;
32130;SDS011;18639;50.716;7.086;2023-02-28T07:50:23;1.35;;;0.77;;
32130;SDS011;18639;50.716;7.086;2023-02-28T07:52:48;2.53;;;0.90;;
32130;SDS011;18639;50.716;7.086;2023-02-28T07:55:13;0.70;;;0.70;;
32130;SDS011;18639;50.716;7.086;2023-02-28T07:57:39;1.63;;;0.90;;
32130;SDS011;18639;50.716;7.086;2023-02-28T08:00:06;2.83;;;1.38;;
32130;SDS011;18639;50.716;7.086;2023-02-28T08:02:34;1.63;;;0.90;;
32130;SDS011;18639;50.716;7.086;2023-02-28T08:05:00;1.20;;;0.80;;
32130;SDS011;18639;50.716;7.086;2023-02-28T08:07:25;1.50;;;0.90;;
32130;SDS011;18639;50.716;7.086;2023-02-28T08:09:50;2.00;;;0.85;;
32130;SDS011;18639;50.716;7.086;2023-02-28T08:12:15;1.60;;;0.85;;
32130;SDS011;18639;50.716;7.086;2023-02-28T08:14:41;3.72;;;0.82;;
32130;SDS011;18639;50.716;7.086;2023-02-28T08:17:06;1.98;;;0.85;;
32130;SDS011;18639;50.716;7.086;2023-02-28T08:19:31;1.38;;;1.08;;
32130;SDS011;18639;50.716;7.086;2023-02-28T08:21:57;2.83;;;1.00;;
32130;SDS011;18639;50.716;7.086;2023-02-28T08:24:22;1.33;;;0.95;;
32130;SDS011;18639;50.716;7.086;2023-02-28T08:26:47;2.53;;;1.00;;
32130;SDS011;18639;50.716;7.086;2023-02-28T08:29:13;2.28;;;1.25;;
32130;SDS011;18639;50.716;7.086;2023-02-28T08:31:38;2.72;;;0.88;;
32130;SDS011;18639;50.716;7.086;2023-02-28T08:34:11;1.70;;;1.00;;
32130;SDS011;18639;50.716;7.086;2023-02-28T08:36:38;1.88;;;1.00;;
32130;SDS011;18639;50.716;7.086;2023-02-28T08:39:03;1.30;;;0.80;;
32130;SDS011;18639;50.716;7.086;2023-02-28T08:41:29;3.53;;;1.08;;
32130;SDS011;18639;50.716;7.086;2023-02-28T08:43:55;1.05;;;0.88;;
32130;SDS011;18639;50.716;7.086;2023-02-28T08:46:20;2.25;;;1.15;;
32130;SDS011;18639;50.716;7.086;2023-02-28T08:48:45;2.20;;;0.90;;
32130;SDS011;18639;50.716;7.086;2023-02-28T08:51:15;0.93;;;0.80;;
32130;SDS011;18639;50.716;7.086;2023-02-28T08:53:43;2.58;;;1.10;;
32130;SDS011;18639;50.716;7.086;2023-02-28T08:56:10;1.90;;;1.05;;
32130;SDS011;18639;50.716;7.086;2023-02-28T08:58:37;5.95;;;0.77;;
32130;SDS011;18639;50.716;7.086;2023-02-28T09:01:10;2.75;;;1.02;;
32130;SDS011;18639;50.716;7.086;2023-02-28T09:03:40;2.20;;;1.10;;
32130;SDS011;18639;50.716;7.086;2023-02-28T09:06:09;1.58;;;0.90;;
32130;SDS011;18639;50.716;7.086;2023-02-28T09:08:35;4.10;;;1.27;;
32130;SDS011;18639;50.716;7.086;2023-02-28T09:11:01;1.77;;;1.05;;
32130;SDS011;18639;50.716;7.086;2023-02-28T09:13:28;1.10;;;0.80;;
32130;SDS011;18639;50.716;7.086;2023-02-28T09:15:56;1.10;;;0.88;;
32130;SDS011;18639;50.716;7.086;2023-02-28T09:18:22;1.75;;;1.00;;
32130;SDS011;18639;50.716;7.086;2023-02-28T09:20:48;2.50;;;1.13;;
32130;SDS011;18639;50.716;7.086;2023-02-28T09:23:13;2.58;;;0.85;;
32130;SDS011;18639;50.716;7.086;2023-02-28T09:25:44;2.13;;;0.90;;
32130;SDS011;18639;50.716;7.086;2023-02-28T09:28:11;1.50;;;0.88;;
32130;SDS011;18639;50.716;7.086;2023-02-28T09:30:37;1.42;;;0.80;;
32130;SDS011;18639;50.716;7.086;2023-02-28T09:33:02;2.55;;;1.08;;
32130;SDS011;18639;50.716;7.086;2023-02-28T09:35:28;1.25;;;0.70;;
32130;SDS011;18639;50.716;7.086;2023-02-28T09:37:53;1.25;;;0.98;;
32130;SDS011;18639;50.716;7.086;2023-02-28T09:40:19;1.88;;;0.98;;
32130;SDS011;18639;50.716;7.086;2023-02-28T09:42:47;2.10;;;1.30;;
32130;SDS011;18639;50.716;7.086;2023-02-28T09:45:24;2.20;;;1.00;;
32130;SDS011;18639;50.716;7.086;2023-02-28T09:47:55;1.90;;;0.95;;
32130;SDS011;18639;50.716;7.086;2023-02-28T09:50:38;1.70;;;0.90;;
32130;SDS011;18639;50.716;7.086;2023-02-28T09:53:49;2.28;;;1.30;;
32130;SDS011;18639;50.716;7.086;2023-02-28T09:55:59;2.13;;;0.80;;
32130;SDS011;18639;50.716;7.086;2023-02-28T10:07:12;1.20;;;1.10;;
32130;SDS011;18639;50.716;7.086;2023-02-28T10:09:46;2.20;;;1.10;;
32130;SDS011;18639;50.716;7.086;2023-02-28T10:12:18;1.27;;;0.80;;
32130;SDS011;18639;50.716;7.086;2023-02-28T10:14:45;1.92;;;0.90;;
32130;SDS011;18639;50.716;7.086;2023-02-28T10:17:15;1.23;;;0.88;;
32130;SDS011;18639;50.716;7.086;2023-02-28T10:20:05;1.80;;;0.98;;
32130;SDS011;18639;50.716;7.086;2023-02-28T10:22:52;1.65;;;0.90;;
32130;SDS011;18639;50.716;7.086;2023-02-28T10:25:23;1.58;;;0.90;;
32130;SDS011;18639;50.716;7.086;2023-02-28T10:27:53;0.90;;;0.80;;
32130;SDS011;18639;50.716;7.086;2023-02-28T10:30:25;1.58;;;1.08;;
32130;SDS011;18639;50.716;7.086;2023-02-28T10:32:51;1.55;;;1.05;;
32130;SDS011;18639;50.716;7.086;2023-02-28T10:35:20;2.47;;;0.90;;
32130;SDS011;18639;50.716;7.086;2023-02-28T10:37:48;1.10;;;0.80;;
32130;SDS011;18639;50.716;7.086;2023-02-28T10:43:01;1.58;;;0.93;;
32130;SDS011;18639;50.716;7.086;2023-02-28T10:45:59;0.88;;;0.52;;
32130;SDS011;18639;50.716;7.086;2023-02-28T10:51:10;2.42;;;0.88;;
32130;SDS011;18639;50.716;7.086;2023-02-28T10:53:38;0.93;;;0.63;;
32130;SDS011;18639;50.716;7.086;2023-02-28T11:01:11;0.90;;;0.70;;
32130;SDS011;18639;50.716;7.086;2023-02-28T11:03:39;2.00;;;0.77;;
32130;SDS011;18639;50.716;7.086;2023-02-28T11:06:06;1.63;;;0.70;;
32130;SDS011;18639;50.716;7.086;2023-02-28T11:08:43;1.80;;;0.75;;
32130;SDS011;18639;50.716;7.086;2023-02-28T11:11:11;1.42;;;0.70;;
32130;SDS011;18639;50.716;7.086;2023-02-28T11:13:37;2.20;;;0.90;;
32130;SDS011;18639;50.716;7.086;2023-02-28T11:16:04;1.20;;;0.80;;
32130;SDS011;18639;50.716;7.086;2023-02-28T11:21:08;2.13;;;0.90;;
32130;SDS011;18639;50.716;7.086;2023-02-28T11:23:40;1.65;;;0.63;;
32130;SDS011;18639;50.716;7.086;2023-02-28T11:26:06;1.83;;;0.85;;
32130;SDS011;18639;50.716;7.086;2023-02-28T11:28:36;1.10;;;0.70;;
32130;SDS011;18639;50.716;7.086;2023-02-28T11:33:52;1.38;;;0.70;;
32130;SDS011;18639;50.716;7.086;2023-02-28T11:36:23;1.42;;;0.88;;
32130;SDS011;18639;50.716;7.086;2023-02-28T11:38:50;0.90;;;0.70;;
32130;SDS011;18639;50.716;7.086;2023-02-28T11:41:22;1.55;;;0.70;;
32130;SDS011;18639;50.716;7.086;2023-02-28T11:43:56;1.38;;;0.90;;
32130;SDS011;18639;50.716;7.086;2023-02-28T11:46:50;1.38;;;0.73;;
32130;SDS011;18639;50.716;7.086;2023-02-28T11:49:30;1.42;;;1.00;;
32130;SDS011;18639;50.716;7.086;2023-02-28T11:52:01;1.48;;;0.88;;
32130;SDS011;18639;50.716;7.086;2023-02-28T12:03:31;2.05;;;0.90;;
32130;SDS011;18639;50.716;7.086;2023-02-28T12:06:12;1.08;;;0.80;;
32130;SDS011;18639;50.716;7.086;2023-02-28T12:08:42;1.25;;;0.93;;
32130;SDS011;18639;50.716;7.086;2023-02-28T12:14:07;0.93;;;0.68;;
32130;SDS011;18639;50.716;7.086;2023-02-28T12:19:58;1.00;;;0.70;;
32130;SDS011;18639;50.716;7.086;2023-02-28T12:22:28;1.67;;;0.80;;
32130;SDS011;18639;50.716;7.086;2023-02-28T12:27:42;3.53;;;0.93;;
32130;SDS011;18639;50.716;7.086;2023-02-28T12:30:31;1.83;;;1.00;;
32130;SDS011;18639;50.716;7.086;2023-02-28T12:33:07;1.25;;;0.73;;
32130;SDS011;18639;50.716;7.086;2023-02-28T12:35:57;1.63;;;0.98;;
32130;SDS011;18639;50.716;7.086;2023-02-28T12:38:27;1.63;;;0.70;;
32130;SDS011;18639;50.716;7.086;2023-02-28T12:41:00;0.90;;;0.70;;
32130;SDS011;18639;50.716;7.086;2023-02-28T12:43:36;1.00;;;0.73;;
32130;SDS011;18639;50.716;7.086;2023-02-28T12:46:10;2.83;;;0.90;;
32130;SDS011;18639;50.716;7.086;2023-02-28T12:48:43;1.98;;;0.73;;
32130;SDS011;18639;50.716;7.086;2023-02-28T12:51:14;0.75;;;0.60;;
32130;SDS011;18639;50.716;7.086;2023-02-28T12:53:56;0.85;;;0.63;;
32130;SDS011;18639;50.716;7.086;2023-02-28T12:59:31;1.60;;;0.90;;
32130;SDS011;18639;50.716;7.086;2023-02-28T13:07:57;0.73;;;0.73;;
32130;SDS011;18639;50.716;7.086;2023-02-28T13:13:06;1.80;;;0.98;;
32130;SDS011;18639;50.716;7.086;2023-02-28T13:15:40;1.85;;;0.90;;
32130;SDS011;18639;50.716;7.086;2023-02-28T13:18:20;1.67;;;0.90;;
32130;SDS011;18639;50.716;7.086;2023-02-28T13:20:54;3.20;;;0.80;;
32130;SDS011;18639;50.716;7.086;2023-02-28T13:23:40;2.53;;;0.98;;
32130;SDS011;18639;50.716;7.086;2023-02-28T13:29:00;1.05;;;0.73;;
32130;SDS011;18639;50.716;7.086;2023-02-28T13:31:29;2.92;;;0.88;;
32130;SDS011;18639;50.716;7.086;2023-02-28T13:36:27;1.27;;;0.70;;
32130;SDS011;18639;50.716;7.086;2023-02-28T13:39:02;1.42;;;0.80;;
32130;SDS011;18639;50.716;7.086;2023-02-28T13:41:47;1.45;;;0.75;;
32130;SDS011;18639;50.716;7.086;2023-02-28T13:44:14;1.92;;;0.93;;
32130;SDS011;18639;50.716;7.086;2023-02-28T13:49:20;6.45;;;0.95;;
32130;SDS011;18639;50.716;7.086;2023-02-28T14:00:35;2.08;;;0.90;;
32130;SDS011;18639;50.716;7.086;2023-02-28T14:08:58;3.85;;;1.15;;
32130;SDS011;18639;50.716;7.086;2023-02-28T14:14:02;2.08;;;1.10;;
32130;SDS011;18639;50.716;7.086;2023-02-28T14:16:39;1.50;;;1.00;;
32130;SDS011;18639;50.716;7.086;2023-02-28T14:19:12;1.75;;;0.80;;
32130;SDS011;18639;50.716;7.086;2023-02-28T14:24:42;2.45;;;1.38;;
32130;SDS011;18639;50.716;7.086;2023-02-28T14:27:34;1.90;;;1.02;;
32130;SDS011;18639;50.716;7.086;2023-02-28T14:30:25;2.00;;;1.08;;
32130;SDS011;18639;50.716;7.086;2023-02-28T14:38:36;1.33;;;1.00;;
32130;SDS011;18639;50.716;7.086;2023-02-28T14:41:29;1.25;;;0.85;;
32130;SDS011;18639;50.716;7.086;2023-02-28T14:44:00;1.35;;;1.13;;
32130;SDS011;18639;50.716;7.086;2023-02-28T14:46:36;2.10;;;0.90;;
32130;SDS011;18639;50.716;7.086;2023-02-28T14:49:03;2.25;;;1.23;;
32130;SDS011;18639;50.716;7.086;2023-02-28T14:51:30;1.67;;;0.85;;
32130;SDS011;18639;50.716;7.086;2023-02-28T14:53:57;3.78;;;0.82;;
32130;SDS011;18639;50.716;7.086;2023-02-28T14:56:35;1.40;;;1.02;;
32130;SDS011;18639;50.716;7.086;2023-02-28T14:59:03;0.95;;;0.80;;
32130;SDS011;18639;50.716;7.086;2023-02-28T15:01:29;0.88;;;0.82;;
32130;SDS011;18639;50.716;7.086;2023-02-28T15:04:01;3.30;;;1.50;;
32130;SDS011;18639;50.716;7.086;2023-02-28T15:06:29;4.30;;;1.48;;
32130;SDS011;18639;50.716;7.086;2023-02-28T15:09:15;3.72;;;1.40;;
32130;SDS011;18639;50.716;7.086;2023-02-28T15:11:47;1.65;;;0.98;;
32130;SDS011;18639;50.716;7.086;2023-02-28T15:14:15;1.58;;;1.00;;
32130;SDS011;18639;50.716;7.086;2023-02-28T15:16:44;2.83;;;1.17;;
32130;SDS011;18639;50.716;7.086;2023-02-28T15:19:17;2.65;;;1.10;;
32130;SDS011;18639;50.716;7.086;2023-02-28T15:21:57;3.72;;;1.30;;
32130;SDS011;18639;50.716;7.086;2023-02-28T15:24:31;1.50;;;1.00;;
32130;SDS011;18639;50.716;7.086;2023-02-28T15:27:06;2.25;;;1.20;;
32130;SDS011;18639;50.716;7.086;2023-02-28T15:29:42;2.72;;;1.05;;
32130;SDS011;18639;50.716;7.086;2023-02-28T15:34:54;3.25;;;1.45;;
32130;SDS011;18639;50.716;7.086;2023-02-28T15:37:27;6.28;;;1.40;;
32130;SDS011;18639;50.716;7.086;2023-02-28T15:40:10;3.25;;;1.15;;
32130;SDS011;18639;50.716;7.086;2023-02-28T15:42:38;2.17;;;1.00;;
32130;SDS011;18639;50.716;7.086;2023-02-28T15:45:04;2.90;;;1.15;;
32130;SDS011;18639;50.716;7.086;2023-02-28T15:47:29;2.85;;;1.42;;
32130;SDS011;18639;50.716;7.086;2023-02-28T15:50:00;1.85;;;1.17;;
32130;SDS011;18639;50.716;7.086;2023-02-28T15:52:34;3.30;;;1.17;;
32130;SDS011;18639;50.716;7.086;2023-02-28T15:55:20;1.67;;;0.98;;
32130;SDS011;18639;50.716;7.086;2023-02-28T15:57:48;2.28;;;1.35;;
32130;SDS011;18639;50.716;7.086;2023-02-28T16:00:21;3.60;;;1.42;;
32130;SDS011;18639;50.716;7.086;2023-02-28T16:02:49;2.22;;;1.15;;
32130;SDS011;18639;50.716;7.086;2023-02-28T16:05:22;2.47;;;1.00;;
32130;SDS011;18639;50.716;7.086;2023-02-28T16:07:57;2.97;;;1.40;;
32130;SDS011;18639;50.716;7.086;2023-02-28T16:10:36;2.00;;;1.13;;
32130;SDS011;18639;50.716;7.086;2023-02-28T16:13:01;1.65;;;1.15;;
32130;SDS011;18639;50.716;7.086;2023-02-28T16:15:28;3.10;;;1.25;;
32130;SDS011;18639;50.716;7.086;2023-02-28T16:18:07;2.75;;;1.10;;
32130;SDS011;18639;50.716;7.086;2023-02-28T16:20:35;6.07;;;1.52;;
32130;SDS011;18639;50.716;7.086;2023-02-28T16:23:00;1.77;;;1.10;;
32130;SDS011;18639;50.716;7.086;2023-02-28T16:25:37;1.17;;;0.90;;
32130;SDS011;18639;50.716;7.086;2023-02-28T16:28:06;2.38;;;1.27;;
32130;SDS011;18639;50.716;7.086;2023-02-28T16:30:44;2.03;;;1.25;;
32130;SDS011;18639;50.716;7.086;2023-02-28T16:33:09;2.75;;;1.33;;
32130;SDS011;18639;50.716;7.086;2023-02-28T16:35:34;1.67;;;1.05;;
32130;SDS011;18639;50.716;7.086;2023-02-28T16:38:00;2.03;;;1.13;;
32130;SDS011;18639;50.716;7.086;2023-02-28T16:40:26;4.50;;;1.52;;
32130;SDS011;18639;50.716;7.086;2023-02-28T16:42:53;3.75;;;1.38;;
32130;SDS011;18639;50.716;7.086;2023-02-28T16:45:24;3.33;;;1.40;;
32130;SDS011;18639;50.716;7.086;2023-02-28T16:47:52;1.88;;;1.00;;
32130;SDS011;18639;50.716;7.086;2023-02-28T16:50:22;3.08;;;1.40;;
32130;SDS011;18639;50.716;7.086;2023-02-28T16:52:49;3.65;;;1.42;;
32130;SDS011;18639;50.716;7.086;2023-02-28T16:55:17;2.65;;;1.33;;
32130;SDS011;18639;50.716;7.086;2023-02-28T16:57:42;1.55;;;0.90;;
32130;SDS011;18639;50.716;7.086;2023-02-28T17:00:10;2.55;;;1.10;;
32130;SDS011;18639;50.716;7.086;2023-02-28T17:02:37;2.85;;;1.42;;
32130;SDS011;18639;50.716;7.086;2023-02-28T17:05:02;1.90;;;0.95;;
32130;SDS011;18639;50.716;7.086;2023-02-28T17:07:28;2.33;;;1.30;;
32130;SDS011;18639;50.716;7.086;2023-02-28T17:09:53;1.90;;;1.08;;
32130;SDS011;18639;50.716;7.086;2023-02-28T17:12:19;2.17;;;1.27;;
32130;SDS011;18639;50.716;7.086;2023-02-28T17:14:44;3.47;;;1.52;;
32130;SDS011;18639;50.716;7.086;2023-02-28T17:17:17;1.02;;;0.95;;